createdAt,value
2024-03-16T00:01:33.734Z,18.70
2024-03-16T00:04:00.679Z,16.95
2024-03-16T00:06:27.336Z,20.55
2024-03-16T00:08:53.960Z,19.95
2024-03-16T00:11:21.002Z,16.58
2024-03-16T00:13:47.610Z,18.25
2024-03-16T00:16:14.356Z,17.98
2024-03-16T00:18:40.912Z,16.80
2024-03-16T00:21:07.548Z,16.38
2024-03-16T00:23:35.856Z,16.48
2024-03-16T00:26:02.632Z,18.75
2024-03-16T00:28:29.256Z,17.95
2024-03-16T00:30:55.765Z,19.80
2024-03-16T00:33:23.078Z,18.60
2024-03-16T00:35:49.826Z,16.90
2024-03-16T00:38:17.760Z,16.77
2024-03-16T00:40:44.304Z,16.25
2024-03-16T00:43:11.741Z,15.50
2024-03-16T00:45:39.184Z,18.65
2024-03-16T00:48:06.049Z,14.15
2024-03-16T00:50:35.451Z,14.07
2024-03-16T00:53:02.089Z,14.82
2024-03-16T00:55:28.595Z,13.57
2024-03-16T00:57:55.164Z,15.48
2024-03-16T01:00:22.406Z,15.95
2024-03-16T01:02:49.451Z,16.83
2024-03-16T01:05:15.956Z,14.63
2024-03-16T01:07:42.696Z,15.20
2024-03-16T01:10:12.624Z,16.00
2024-03-16T01:12:39.443Z,15.65
2024-03-16T01:15:07.001Z,16.52
2024-03-16T01:17:33.593Z,15.23
2024-03-16T01:20:00.640Z,15.60
2024-03-16T01:22:27.243Z,17.38
2024-03-16T01:24:53.826Z,19.05
2024-03-16T01:27:20.619Z,16.60
2024-03-16T01:29:47.638Z,16.35
2024-03-16T01:32:14.200Z,13.93
2024-03-16T01:34:40.898Z,13.02
2024-03-16T01:37:07.524Z,15.32
2024-03-16T01:39:34.394Z,11.85
2024-03-16T01:42:00.964Z,10.77
2024-03-16T01:44:27.458Z,13.43
2024-03-16T01:46:53.969Z,15.65
2024-03-16T01:49:20.439Z,16.67
2024-03-16T01:51:47.007Z,13.13
2024-03-16T01:54:13.592Z,12.85
2024-03-16T01:56:40.555Z,13.60
2024-03-16T01:59:07.175Z,14.68
2024-03-16T02:01:33.880Z,15.02
2024-03-16T02:04:00.662Z,15.30
2024-03-16T02:06:28.404Z,12.75
2024-03-16T02:08:55.385Z,13.45
2024-03-16T02:11:23.077Z,14.13
2024-03-16T02:13:50.132Z,12.55
2024-03-16T02:16:16.979Z,13.02
2024-03-16T02:18:43.799Z,14.38
2024-03-16T02:21:11.512Z,14.35
2024-03-16T02:23:38.433Z,15.23
2024-03-16T02:26:05.982Z,11.00
2024-03-16T02:28:32.819Z,10.70
2024-03-16T02:30:59.823Z,11.68
2024-03-16T02:33:28.779Z,14.35
2024-03-16T02:35:56.746Z,11.43
2024-03-16T02:38:23.880Z,11.60
2024-03-16T02:40:50.625Z,11.93
2024-03-16T02:43:17.200Z,11.40
2024-03-16T02:45:43.788Z,12.85
2024-03-16T02:48:11.006Z,10.68
2024-03-16T02:50:37.752Z,14.60
2024-03-16T02:53:05.008Z,10.90
2024-03-16T02:55:31.707Z,13.35
2024-03-16T02:57:58.450Z,13.27
2024-03-16T03:00:25.534Z,12.27
2024-03-16T03:02:52.847Z,11.63
2024-03-16T03:05:22.349Z,15.15
2024-03-16T03:07:49.330Z,12.05
2024-03-16T03:10:16.201Z,11.05
2024-03-16T03:12:42.943Z,13.95
2024-03-16T03:15:11.163Z,14.18
2024-03-16T03:17:37.767Z,11.43
2024-03-16T03:20:06.748Z,13.93
2024-03-16T03:22:33.789Z,11.98
2024-03-16T03:25:00.638Z,10.90
2024-03-16T03:27:27.350Z,11.23
2024-03-16T03:29:53.979Z,10.75
2024-03-16T03:32:20.494Z,11.43
2024-03-16T03:34:47.832Z,10.57
2024-03-16T03:37:14.443Z,10.32
2024-03-16T03:39:41.064Z,12.48
2024-03-16T03:42:07.806Z,12.43
2024-03-16T03:44:39.615Z,11.68
2024-03-16T03:47:08.337Z,9.18
2024-03-16T03:49:36.842Z,11.10
2024-03-16T03:52:05.860Z,10.75
2024-03-16T03:54:33.370Z,10.55
2024-03-16T03:57:00.210Z,13.20
2024-03-16T03:59:26.782Z,11.05
2024-03-16T04:01:53.557Z,12.10
2024-03-16T04:04:20.206Z,7.47
2024-03-16T04:06:47.799Z,11.50
2024-03-16T04:09:15.344Z,11.20
2024-03-16T04:11:41.998Z,14.27
2024-03-16T04:14:09.064Z,8.48
2024-03-16T04:16:35.749Z,9.55
2024-03-16T04:19:02.505Z,14.25
2024-03-16T04:21:29.280Z,10.80
2024-03-16T04:23:55.922Z,12.02
2024-03-16T04:26:24.035Z,8.75
2024-03-16T04:28:51.179Z,7.65
2024-03-16T04:31:18.356Z,9.82
2024-03-16T04:33:45.221Z,8.75
2024-03-16T04:36:13.507Z,10.95
2024-03-16T04:38:40.140Z,10.82
2024-03-16T04:41:06.671Z,11.10
2024-03-16T04:43:33.679Z,9.48
2024-03-16T04:46:00.272Z,9.65
2024-03-16T04:48:26.908Z,9.02
2024-03-16T04:50:55.914Z,12.20
2024-03-16T04:53:22.432Z,8.55
2024-03-16T04:55:51.483Z,10.02
2024-03-16T04:58:18.845Z,12.65
2024-03-16T05:00:45.478Z,10.77
2024-03-16T05:03:12.294Z,12.15
2024-03-16T05:05:38.872Z,8.23
2024-03-16T05:08:05.789Z,8.95
2024-03-16T05:10:32.306Z,10.73
2024-03-16T05:12:58.891Z,12.70
2024-03-16T05:15:25.782Z,11.82
2024-03-16T05:17:52.420Z,7.10
2024-03-16T05:20:20.110Z,9.50
2024-03-16T05:22:46.598Z,8.90
2024-03-16T05:25:13.292Z,8.07
2024-03-16T05:27:40.008Z,11.38
2024-03-16T05:30:08.578Z,8.35
2024-03-16T05:32:35.703Z,8.18
2024-03-16T05:35:02.585Z,7.57
2024-03-16T05:37:31.385Z,8.40
2024-03-16T05:39:58.561Z,8.80
2024-03-16T05:42:25.132Z,8.40
2024-03-16T05:44:52.286Z,9.85
2024-03-16T05:47:22.727Z,8.27
2024-03-16T05:49:49.297Z,8.43
2024-03-16T05:52:16.113Z,9.40
2024-03-16T05:54:42.670Z,7.05
2024-03-16T05:57:09.293Z,8.50
2024-03-16T05:59:35.906Z,8.20
2024-03-16T06:02:02.536Z,9.15
2024-03-16T06:04:29.144Z,10.48
2024-03-16T06:06:56.526Z,9.38
2024-03-16T06:09:23.082Z,8.10
2024-03-16T06:11:49.577Z,9.00
2024-03-16T06:14:16.084Z,9.75
2024-03-16T06:16:42.581Z,7.35
2024-03-16T06:19:09.242Z,7.07
2024-03-16T06:21:35.871Z,6.75
2024-03-16T06:24:04.957Z,9.20
2024-03-16T06:26:37.670Z,6.60
2024-03-16T06:29:09.772Z,12.05
2024-03-16T06:31:38.815Z,8.18
2024-03-16T06:34:08.539Z,8.27
2024-03-16T06:36:36.848Z,8.48
2024-03-16T06:39:12.839Z,7.40
2024-03-16T06:41:39.547Z,8.23
2024-03-16T06:44:06.071Z,8.15
2024-03-16T06:46:33.235Z,7.30
2024-03-16T06:49:07.588Z,8.68
2024-03-16T06:51:34.885Z,7.88
2024-03-16T06:54:01.662Z,6.68
2024-03-16T06:56:28.264Z,7.20
2024-03-16T06:58:54.766Z,7.38
2024-03-16T07:01:21.940Z,9.65
2024-03-16T07:03:48.734Z,6.18
2024-03-16T07:06:15.281Z,7.30
2024-03-16T07:08:41.839Z,7.47
2024-03-16T07:11:08.379Z,9.80
2024-03-16T07:13:36.288Z,6.68
2024-03-16T07:16:02.861Z,7.18
2024-03-16T07:18:29.544Z,7.88
2024-03-16T07:20:58.966Z,7.38
2024-03-16T07:23:26.685Z,9.20
2024-03-16T07:25:53.356Z,6.68
2024-03-16T07:28:19.981Z,7.00
2024-03-16T07:30:46.620Z,8.18
2024-03-16T07:33:14.821Z,10.07
2024-03-16T07:35:41.499Z,7.30
2024-03-16T07:38:08.062Z,6.95
2024-03-16T07:40:35.054Z,8.75
2024-03-16T07:43:02.625Z,8.45
2024-03-16T07:45:29.354Z,6.63
2024-03-16T07:47:56.091Z,8.93
2024-03-16T07:50:22.763Z,7.85
2024-03-16T07:52:49.336Z,5.95
2024-03-16T07:55:16.097Z,8.38
2024-03-16T07:57:43.764Z,7.18
2024-03-16T08:00:12.477Z,7.18
2024-03-16T08:02:39.297Z,7.60
2024-03-16T08:05:06.045Z,7.18
2024-03-16T08:07:32.749Z,6.63
2024-03-16T08:09:59.340Z,8.52
2024-03-16T08:12:25.962Z,7.93
2024-03-16T08:14:52.526Z,6.28
2024-03-16T08:17:19.676Z,5.63
2024-03-16T08:19:46.290Z,6.40
2024-03-16T08:22:13.002Z,6.35
2024-03-16T08:24:39.658Z,11.50
2024-03-16T08:27:06.284Z,7.25
2024-03-16T08:29:34.135Z,6.65
2024-03-16T08:32:00.722Z,8.15
2024-03-16T08:34:27.487Z,6.75
2024-03-16T08:36:54.247Z,5.28
2024-03-16T08:39:21.550Z,7.75
2024-03-16T08:41:49.131Z,4.20
2024-03-16T08:44:15.751Z,5.93
2024-03-16T08:46:42.328Z,6.15
2024-03-16T08:49:09.001Z,5.45
2024-03-16T08:51:36.178Z,4.45
2024-03-16T08:54:02.830Z,6.28
2024-03-16T08:56:29.820Z,4.35
2024-03-16T08:58:57.501Z,6.72
2024-03-16T09:01:24.558Z,6.95
2024-03-16T09:03:51.168Z,4.43
2024-03-16T09:06:18.275Z,7.53
2024-03-16T09:08:44.983Z,7.13
2024-03-16T09:11:12.535Z,4.07
2024-03-16T09:13:39.113Z,4.45
2024-03-16T09:16:07.083Z,7.63
2024-03-16T09:18:36.125Z,4.70
2024-03-16T09:21:03.904Z,4.82
2024-03-16T09:23:30.864Z,5.72
2024-03-16T09:25:57.706Z,4.18
2024-03-16T09:28:24.614Z,3.53
2024-03-16T09:30:54.026Z,5.32
2024-03-16T09:33:22.896Z,5.57
2024-03-16T09:35:49.395Z,4.15
2024-03-16T09:38:15.872Z,4.53
2024-03-16T09:40:45.522Z,3.80
